sensor_id;sensor_type;location;lat;lon;timestamp;P1;durP1;ratioP1;P2;durP2;ratioP2
28762;SDS011;15918;51.270;6.522;2023-07-29T00:02:06;3.33;;;1.60;;
28762;SDS011;15918;51.270;6.522;2023-07-29T00:04:31;1.70;;;1.60;;
28762;SDS011;15918;51.270;6.522;2023-07-29T00:06:57;1.70;;;1.52;;
28762;SDS011;15918;51.270;6.522;2023-07-29T00:09:22;1.73;;;1.60;;
28762;SDS011;15918;51.270;6.522;2023-07-29T00:11:49;4.10;;;2.00;;
28762;SDS011;15918;51.270;6.522;2023-07-29T00:14:15;2.35;;;1.90;;
28762;SDS011;15918;51.270;6.522;2023-07-29T00:16:40;3.05;;;2.08;;
28762;SDS011;15918;51.270;6.522;2023-07-29T00:19:07;2.05;;;1.85;;
28762;SDS011;15918;51.270;6.522;2023-07-29T00:21:33;2.13;;;1.92;;
28762;SDS011;15918;51.270;6.522;2023-07-29T00:23:59;2.25;;;1.58;;
28762;SDS011;15918;51.270;6.522;2023-07-29T00:26:26;2.10;;;1.50;;
28762;SDS011;15918;51.270;6.522;2023-07-29T00:28:54;2.35;;;1.92;;
28762;SDS011;15918;51.270;6.522;2023-07-29T00:31:23;3.15;;;2.10;;
28762;SDS011;15918;51.270;6.522;2023-07-29T00:33:48;3.35;;;2.13;;
28762;SDS011;15918;51.270;6.522;2023-07-29T00:36:14;2.67;;;1.70;;
28762;SDS011;15918;51.270;6.522;2023-07-29T00:38:40;4.22;;;1.85;;
28762;SDS011;15918;51.270;6.522;2023-07-29T00:41:06;2.63;;;1.95;;
28762;SDS011;15918;51.270;6.522;2023-07-29T00:43:33;1.90;;;1.73;;
28762;SDS011;15918;51.270;6.522;2023-07-29T00:45:59;1.90;;;1.80;;
28762;SDS011;15918;51.270;6.522;2023-07-29T00:48:25;3.10;;;1.80;;
28762;SDS011;15918;51.270;6.522;2023-07-29T00:50:51;2.72;;;1.80;;
28762;SDS011;15918;51.270;6.522;2023-07-29T00:53:17;8.02;;;2.22;;
28762;SDS011;15918;51.270;6.522;2023-07-29T00:55:43;3.33;;;2.13;;
28762;SDS011;15918;51.270;6.522;2023-07-29T00:58:09;2.75;;;1.55;;
28762;SDS011;15918;51.270;6.522;2023-07-29T01:00:35;1.80;;;1.70;;
28762;SDS011;15918;51.270;6.522;2023-07-29T01:03:01;3.00;;;1.92;;
28762;SDS011;15918;51.270;6.522;2023-07-29T01:05:28;3.38;;;1.83;;
28762;SDS011;15918;51.270;6.522;2023-07-29T01:13:44;2.20;;;2.00;;
28762;SDS011;15918;51.270;6.522;2023-07-29T01:16:17;3.53;;;2.20;;
28762;SDS011;15918;51.270;6.522;2023-07-29T01:18:54;5.55;;;1.90;;
28762;SDS011;15918;51.270;6.522;2023-07-29T01:21:20;2.08;;;1.83;;
28762;SDS011;15918;51.270;6.522;2023-07-29T01:23:47;2.38;;;2.03;;
28762;SDS011;15918;51.270;6.522;2023-07-29T01:26:12;3.15;;;1.92;;
28762;SDS011;15918;51.270;6.522;2023-07-29T01:28:38;2.35;;;1.98;;
28762;SDS011;15918;51.270;6.522;2023-07-29T01:31:10;3.33;;;2.03;;
28762;SDS011;15918;51.270;6.522;2023-07-29T01:33:48;3.90;;;2.30;;
28762;SDS011;15918;51.270;6.522;2023-07-29T01:36:22;3.22;;;2.10;;
28762;SDS011;15918;51.270;6.522;2023-07-29T01:38:53;3.30;;;2.00;;
28762;SDS011;15918;51.270;6.522;2023-07-29T01:41:21;2.15;;;1.92;;
28762;SDS011;15918;51.270;6.522;2023-07-29T01:43:47;2.80;;;2.03;;
28762;SDS011;15918;51.270;6.522;2023-07-29T01:46:14;3.22;;;2.00;;
28762;SDS011;15918;51.270;6.522;2023-07-29T01:48:40;3.03;;;2.17;;
28762;SDS011;15918;51.270;6.522;2023-07-29T01:51:06;3.58;;;2.15;;
28762;SDS011;15918;51.270;6.522;2023-07-29T01:53:32;3.97;;;2.13;;
28762;SDS011;15918;51.270;6.522;2023-07-29T01:55:58;2.47;;;2.08;;
28762;SDS011;15918;51.270;6.522;2023-07-29T01:58:24;6.32;;;2.35;;
28762;SDS011;15918;51.270;6.522;2023-07-29T02:00:50;4.78;;;2.75;;
28762;SDS011;15918;51.270;6.522;2023-07-29T02:03:15;2.33;;;2.13;;
28762;SDS011;15918;51.270;6.522;2023-07-29T02:05:41;2.03;;;1.88;;
28762;SDS011;15918;51.270;6.522;2023-07-29T02:08:08;3.00;;;2.70;;
28762;SDS011;15918;51.270;6.522;2023-07-29T02:10:34;2.47;;;2.28;;
28762;SDS011;15918;51.270;6.522;2023-07-29T02:13:00;2.95;;;2.17;;
28762;SDS011;15918;51.270;6.522;2023-07-29T02:15:25;3.20;;;2.45;;
28762;SDS011;15918;51.270;6.522;2023-07-29T02:17:51;2.90;;;2.35;;
28762;SDS011;15918;51.270;6.522;2023-07-29T02:20:17;2.80;;;2.17;;
28762;SDS011;15918;51.270;6.522;2023-07-29T02:22:42;3.42;;;2.00;;
28762;SDS011;15918;51.270;6.522;2023-07-29T02:25:08;5.22;;;2.30;;
28762;SDS011;15918;51.270;6.522;2023-07-29T02:27:34;4.13;;;2.55;;
28762;SDS011;15918;51.270;6.522;2023-07-29T02:30:00;3.60;;;2.17;;
28762;SDS011;15918;51.270;6.522;2023-07-29T02:32:26;3.67;;;2.50;;
28762;SDS011;15918;51.270;6.522;2023-07-29T02:34:52;3.58;;;2.45;;
28762;SDS011;15918;51.270;6.522;2023-07-29T02:37:17;4.30;;;2.38;;
28762;SDS011;15918;51.270;6.522;2023-07-29T02:39:43;3.00;;;2.35;;
28762;SDS011;15918;51.270;6.522;2023-07-29T02:42:08;3.05;;;2.50;;
28762;SDS011;15918;51.270;6.522;2023-07-29T02:44:34;2.40;;;2.15;;
28762;SDS011;15918;51.270;6.522;2023-07-29T02:46:59;3.78;;;2.40;;
28762;SDS011;15918;51.270;6.522;2023-07-29T02:49:25;5.50;;;2.90;;
28762;SDS011;15918;51.270;6.522;2023-07-29T02:51:51;4.68;;;2.50;;
28762;SDS011;15918;51.270;6.522;2023-07-29T02:54:16;4.63;;;2.40;;
28762;SDS011;15918;51.270;6.522;2023-07-29T02:56:42;3.90;;;2.75;;
28762;SDS011;15918;51.270;6.522;2023-07-29T02:59:07;5.03;;;2.30;;
28762;SDS011;15918;51.270;6.522;2023-07-29T03:01:33;2.60;;;2.40;;
28762;SDS011;15918;51.270;6.522;2023-07-29T03:03:58;3.97;;;2.60;;
28762;SDS011;15918;51.270;6.522;2023-07-29T03:06:24;3.00;;;2.38;;
28762;SDS011;15918;51.270;6.522;2023-07-29T03:08:50;6.40;;;2.78;;
28762;SDS011;15918;51.270;6.522;2023-07-29T03:11:15;3.85;;;2.60;;
28762;SDS011;15918;51.270;6.522;2023-07-29T03:13:42;4.35;;;2.85;;
28762;SDS011;15918;51.270;6.522;2023-07-29T03:16:08;2.45;;;2.25;;
28762;SDS011;15918;51.270;6.522;2023-07-29T03:18:34;5.53;;;2.78;;
28762;SDS011;15918;51.270;6.522;2023-07-29T03:21:00;4.85;;;2.60;;
28762;SDS011;15918;51.270;6.522;2023-07-29T03:23:27;3.97;;;2.33;;
28762;SDS011;15918;51.270;6.522;2023-07-29T03:25:56;2.78;;;2.47;;
28762;SDS011;15918;51.270;6.522;2023-07-29T03:28:33;3.85;;;2.85;;
28762;SDS011;15918;51.270;6.522;2023-07-29T03:30:58;3.05;;;2.30;;
28762;SDS011;15918;51.270;6.522;2023-07-29T03:33:25;3.13;;;2.88;;
28762;SDS011;15918;51.270;6.522;2023-07-29T03:35:51;4.90;;;2.75;;
28762;SDS011;15918;51.270;6.522;2023-07-29T03:38:17;2.95;;;2.75;;
28762;SDS011;15918;51.270;6.522;2023-07-29T03:40:43;3.92;;;2.70;;
28762;SDS011;15918;51.270;6.522;2023-07-29T03:43:09;3.30;;;2.45;;
28762;SDS011;15918;51.270;6.522;2023-07-29T03:45:35;5.00;;;3.30;;
28762;SDS011;15918;51.270;6.522;2023-07-29T03:48:01;2.67;;;2.47;;
28762;SDS011;15918;51.270;6.522;2023-07-29T03:50:28;3.95;;;2.75;;
28762;SDS011;15918;51.270;6.522;2023-07-29T03:52:54;3.80;;;3.10;;
28762;SDS011;15918;51.270;6.522;2023-07-29T03:55:20;2.72;;;2.53;;
28762;SDS011;15918;51.270;6.522;2023-07-29T03:57:46;3.90;;;2.67;;
28762;SDS011;15918;51.270;6.522;2023-07-29T04:00:12;3.03;;;2.67;;
28762;SDS011;15918;51.270;6.522;2023-07-29T04:02:38;3.10;;;2.90;;
28762;SDS011;15918;51.270;6.522;2023-07-29T04:05:04;2.83;;;2.47;;
28762;SDS011;15918;51.270;6.522;2023-07-29T04:07:30;2.67;;;2.47;;
28762;SDS011;15918;51.270;6.522;2023-07-29T04:09:56;3.20;;;2.80;;
28762;SDS011;15918;51.270;6.522;2023-07-29T04:12:22;2.70;;;2.50;;
28762;SDS011;15918;51.270;6.522;2023-07-29T04:14:48;3.25;;;3.00;;
28762;SDS011;15918;51.270;6.522;2023-07-29T04:17:14;4.90;;;3.03;;
28762;SDS011;15918;51.270;6.522;2023-07-29T04:19:40;3.10;;;2.80;;
28762;SDS011;15918;51.270;6.522;2023-07-29T04:22:05;3.78;;;3.47;;
28762;SDS011;15918;51.270;6.522;2023-07-29T04:24:31;3.97;;;2.92;;
28762;SDS011;15918;51.270;6.522;2023-07-29T04:26:56;3.95;;;3.47;;
28762;SDS011;15918;51.270;6.522;2023-07-29T04:29:22;3.65;;;2.80;;
28762;SDS011;15918;51.270;6.522;2023-07-29T04:31:48;3.25;;;3.05;;
28762;SDS011;15918;51.270;6.522;2023-07-29T04:34:14;4.15;;;3.33;;
28762;SDS011;15918;51.270;6.522;2023-07-29T04:36:40;6.07;;;3.65;;
28762;SDS011;15918;51.270;6.522;2023-07-29T04:39:06;3.78;;;3.47;;
28762;SDS011;15918;51.270;6.522;2023-07-29T04:41:31;3.90;;;3.58;;
28762;SDS011;15918;51.270;6.522;2023-07-29T04:43:57;4.50;;;3.33;;
28762;SDS011;15918;51.270;6.522;2023-07-29T04:46:22;4.13;;;3.72;;
28762;SDS011;15918;51.270;6.522;2023-07-29T04:48:48;4.60;;;3.83;;
28762;SDS011;15918;51.270;6.522;2023-07-29T04:51:13;3.80;;;3.47;;
28762;SDS011;15918;51.270;6.522;2023-07-29T04:53:39;5.40;;;3.75;;
28762;SDS011;15918;51.270;6.522;2023-07-29T04:56:04;4.70;;;4.30;;
28762;SDS011;15918;51.270;6.522;2023-07-29T04:58:30;3.88;;;3.17;;
28762;SDS011;15918;51.270;6.522;2023-07-29T05:00:59;4.97;;;3.85;;
28762;SDS011;15918;51.270;6.522;2023-07-29T05:03:25;4.90;;;3.65;;
28762;SDS011;15918;51.270;6.522;2023-07-29T05:05:51;6.53;;;3.63;;
28762;SDS011;15918;51.270;6.522;2023-07-29T05:08:18;4.50;;;4.10;;
28762;SDS011;15918;51.270;6.522;2023-07-29T05:10:44;4.20;;;3.80;;
28762;SDS011;15918;51.270;6.522;2023-07-29T05:13:13;4.50;;;3.47;;
28762;SDS011;15918;51.270;6.522;2023-07-29T05:15:38;4.57;;;3.75;;
28762;SDS011;15918;51.270;6.522;2023-07-29T05:18:04;4.20;;;3.90;;
28762;SDS011;15918;51.270;6.522;2023-07-29T05:20:29;6.75;;;4.03;;
28762;SDS011;15918;51.270;6.522;2023-07-29T05:22:55;4.18;;;3.78;;
28762;SDS011;15918;51.270;6.522;2023-07-29T05:25:21;5.38;;;4.20;;
28762;SDS011;15918;51.270;6.522;2023-07-29T05:27:46;5.63;;;4.20;;
28762;SDS011;15918;51.270;6.522;2023-07-29T05:30:12;4.53;;;4.13;;
28762;SDS011;15918;51.270;6.522;2023-07-29T05:32:37;4.35;;;3.92;;
28762;SDS011;15918;51.270;6.522;2023-07-29T05:35:03;3.80;;;3.50;;
28762;SDS011;15918;51.270;6.522;2023-07-29T05:37:29;4.50;;;3.85;;
28762;SDS011;15918;51.270;6.522;2023-07-29T05:39:54;4.90;;;4.00;;
28762;SDS011;15918;51.270;6.522;2023-07-29T05:42:20;4.55;;;3.50;;
28762;SDS011;15918;51.270;6.522;2023-07-29T05:44:46;4.85;;;3.55;;
28762;SDS011;15918;51.270;6.522;2023-07-29T05:47:11;5.97;;;4.00;;
28762;SDS011;15918;51.270;6.522;2023-07-29T05:49:37;4.07;;;3.67;;
28762;SDS011;15918;51.270;6.522;2023-07-29T05:52:02;3.65;;;3.35;;
28762;SDS011;15918;51.270;6.522;2023-07-29T05:54:28;4.18;;;3.78;;
28762;SDS011;15918;51.270;6.522;2023-07-29T05:56:53;3.85;;;3.50;;
28762;SDS011;15918;51.270;6.522;2023-07-29T05:59:19;4.50;;;3.45;;
28762;SDS011;15918;51.270;6.522;2023-07-29T06:01:45;5.50;;;4.22;;
28762;SDS011;15918;51.270;6.522;2023-07-29T06:04:10;6.32;;;3.92;;
28762;SDS011;15918;51.270;6.522;2023-07-29T06:06:36;3.85;;;3.40;;
28762;SDS011;15918;51.270;6.522;2023-07-29T06:09:01;4.95;;;3.38;;
28762;SDS011;15918;51.270;6.522;2023-07-29T06:11:27;5.93;;;3.28;;
28762;SDS011;15918;51.270;6.522;2023-07-29T06:13:52;4.38;;;3.33;;
28762;SDS011;15918;51.270;6.522;2023-07-29T06:16:18;4.18;;;3.63;;
28762;SDS011;15918;51.270;6.522;2023-07-29T06:18:43;3.92;;;3.03;;
28762;SDS011;15918;51.270;6.522;2023-07-29T06:21:09;5.40;;;3.22;;
28762;SDS011;15918;51.270;6.522;2023-07-29T06:23:37;4.53;;;2.80;;
28762;SDS011;15918;51.270;6.522;2023-07-29T06:26:03;2.97;;;2.65;;
28762;SDS011;15918;51.270;6.522;2023-07-29T06:28:28;3.55;;;2.65;;
28762;SDS011;15918;51.270;6.522;2023-07-29T06:30:54;4.25;;;2.60;;
28762;SDS011;15918;51.270;6.522;2023-07-29T06:33:19;5.40;;;2.80;;
28762;SDS011;15918;51.270;6.522;2023-07-29T06:35:45;2.80;;;2.20;;
28762;SDS011;15918;51.270;6.522;2023-07-29T06:38:10;2.30;;;2.10;;
28762;SDS011;15918;51.270;6.522;2023-07-29T06:40:36;3.53;;;2.80;;
28762;SDS011;15918;51.270;6.522;2023-07-29T06:43:01;2.92;;;2.50;;
28762;SDS011;15918;51.270;6.522;2023-07-29T06:45:27;3.35;;;2.47;;
28762;SDS011;15918;51.270;6.522;2023-07-29T06:47:53;3.05;;;2.45;;
28762;SDS011;15918;51.270;6.522;2023-07-29T06:50:18;2.75;;;2.53;;
28762;SDS011;15918;51.270;6.522;2023-07-29T06:52:44;2.47;;;2.30;;
28762;SDS011;15918;51.270;6.522;2023-07-29T06:55:10;3.15;;;2.42;;
28762;SDS011;15918;51.270;6.522;2023-07-29T06:57:36;2.95;;;2.40;;
28762;SDS011;15918;51.270;6.522;2023-07-29T07:00:02;4.43;;;2.70;;
28762;SDS011;15918;51.270;6.522;2023-07-29T07:02:28;3.65;;;2.20;;
28762;SDS011;15918;51.270;6.522;2023-07-29T07:04:54;2.38;;;2.17;;
28762;SDS011;15918;51.270;6.522;2023-07-29T07:07:19;2.72;;;2.38;;
28762;SDS011;15918;51.270;6.522;2023-07-29T07:09:45;4.68;;;2.35;;
28762;SDS011;15918;51.270;6.522;2023-07-29T07:12:11;4.80;;;2.78;;
28762;SDS011;15918;51.270;6.522;2023-07-29T07:14:36;2.47;;;2.28;;
28762;SDS011;15918;51.270;6.522;2023-07-29T07:17:02;2.15;;;2.03;;
28762;SDS011;15918;51.270;6.522;2023-07-29T07:19:28;7.22;;;2.35;;
28762;SDS011;15918;51.270;6.522;2023-07-29T07:21:53;2.40;;;2.20;;
28762;SDS011;15918;51.270;6.522;2023-07-29T07:24:19;3.97;;;2.10;;
28762;SDS011;15918;51.270;6.522;2023-07-29T07:26:45;2.85;;;2.38;;
28762;SDS011;15918;51.270;6.522;2023-07-29T07:29:10;3.90;;;1.90;;
28762;SDS011;15918;51.270;6.522;2023-07-29T07:31:36;2.90;;;1.98;;
28762;SDS011;15918;51.270;6.522;2023-07-29T07:34:01;3.42;;;1.98;;
28762;SDS011;15918;51.270;6.522;2023-07-29T07:36:28;5.10;;;1.92;;
28762;SDS011;15918;51.270;6.522;2023-07-29T07:38:54;2.40;;;2.13;;
28762;SDS011;15918;51.270;6.522;2023-07-29T07:41:19;2.05;;;1.95;;
28762;SDS011;15918;51.270;6.522;2023-07-29T07:43:45;2.17;;;2.03;;
28762;SDS011;15918;51.270;6.522;2023-07-29T07:46:11;3.33;;;1.88;;
28762;SDS011;15918;51.270;6.522;2023-07-29T07:48:37;4.32;;;1.88;;
28762;SDS011;15918;51.270;6.522;2023-07-29T07:51:12;3.13;;;2.22;;
28762;SDS011;15918;51.270;6.522;2023-07-29T07:53:38;2.93;;;1.80;;
28762;SDS011;15918;51.270;6.522;2023-07-29T07:56:05;3.35;;;1.67;;
28762;SDS011;15918;51.270;6.522;2023-07-29T07:58:31;2.55;;;1.73;;
28762;SDS011;15918;51.270;6.522;2023-07-29T08:01:06;1.80;;;1.70;;
28762;SDS011;15918;51.270;6.522;2023-07-29T08:03:33;2.00;;;1.90;;
28762;SDS011;15918;51.270;6.522;2023-07-29T08:06:00;3.95;;;1.92;;
28762;SDS011;15918;51.270;6.522;2023-07-29T08:08:26;2.20;;;1.70;;
28762;SDS011;15918;51.270;6.522;2023-07-29T08:10:52;1.70;;;1.60;;
28762;SDS011;15918;51.270;6.522;2023-07-29T08:13:22;2.22;;;1.70;;
28762;SDS011;15918;51.270;6.522;2023-07-29T08:15:49;3.53;;;1.65;;
28762;SDS011;15918;51.270;6.522;2023-07-29T08:18:15;2.83;;;1.80;;
28762;SDS011;15918;51.270;6.522;2023-07-29T08:20:42;3.75;;;1.67;;
28762;SDS011;15918;51.270;6.522;2023-07-29T08:23:20;2.42;;;1.52;;
28762;SDS011;15918;51.270;6.522;2023-07-29T08:25:56;1.83;;;1.73;;
28762;SDS011;15918;51.270;6.522;2023-07-29T08:28:36;2.38;;;1.65;;
28762;SDS011;15918;51.270;6.522;2023-07-29T08:31:04;1.67;;;1.58;;
28762;SDS011;15918;51.270;6.522;2023-07-29T08:33:30;2.17;;;1.70;;
28762;SDS011;15918;51.270;6.522;2023-07-29T08:35:56;1.55;;;1.45;;
28762;SDS011;15918;51.270;6.522;2023-07-29T08:38:22;1.60;;;1.50;;
28762;SDS011;15918;51.270;6.522;2023-07-29T08:40:57;4.38;;;1.67;;
28762;SDS011;15918;51.270;6.522;2023-07-29T08:43:29;1.67;;;1.40;;
28762;SDS011;15918;51.270;6.522;2023-07-29T08:45:56;1.83;;;1.73;;
28762;SDS011;15918;51.270;6.522;2023-07-29T08:48:23;2.20;;;1.83;;
28762;SDS011;15918;51.270;6.522;2023-07-29T08:50:58;1.85;;;1.55;;
28762;SDS011;15918;51.270;6.522;2023-07-29T08:53:26;2.63;;;1.55;;
28762;SDS011;15918;51.270;6.522;2023-07-29T08:55:52;1.65;;;1.55;;
28762;SDS011;15918;51.270;6.522;2023-07-29T08:58:18;3.25;;;1.55;;
28762;SDS011;15918;51.270;6.522;2023-07-29T09:00:44;2.00;;;1.60;;
28762;SDS011;15918;51.270;6.522;2023-07-29T09:03:11;3.17;;;1.77;;
28762;SDS011;15918;51.270;6.522;2023-07-29T09:05:37;4.07;;;1.92;;
28762;SDS011;15918;51.270;6.522;2023-07-29T09:08:02;2.45;;;1.80;;
28762;SDS011;15918;51.270;6.522;2023-07-29T09:10:29;2.47;;;1.90;;
28762;SDS011;15918;51.270;6.522;2023-07-29T09:12:55;3.33;;;1.50;;
28762;SDS011;15918;51.270;6.522;2023-07-29T09:15:29;1.90;;;1.60;;
28762;SDS011;15918;51.270;6.522;2023-07-29T09:17:57;2.10;;;2.00;;
28762;SDS011;15918;51.270;6.522;2023-07-29T09:20:26;2.08;;;1.92;;
28762;SDS011;15918;51.270;6.522;2023-07-29T09:22:56;2.38;;;1.85;;
28762;SDS011;15918;51.270;6.522;2023-07-29T09:25:25;1.58;;;1.48;;
28762;SDS011;15918;51.270;6.522;2023-07-29T09:27:52;4.82;;;1.70;;
28762;SDS011;15918;51.270;6.522;2023-07-29T09:30:18;1.90;;;1.65;;
28762;SDS011;15918;51.270;6.522;2023-07-29T09:32:43;3.35;;;1.60;;
28762;SDS011;15918;51.270;6.522;2023-07-29T09:35:10;1.75;;;1.65;;
28762;SDS011;15918;51.270;6.522;2023-07-29T09:37:39;1.77;;;1.55;;
28762;SDS011;15918;51.270;6.522;2023-07-29T09:40:05;5.05;;;1.90;;
28762;SDS011;15918;51.270;6.522;2023-07-29T09:42:31;2.38;;;2.00;;
28762;SDS011;15918;51.270;6.522;2023-07-29T09:44:58;2.03;;;1.70;;
28762;SDS011;15918;51.270;6.522;2023-07-29T09:47:24;4.82;;;1.88;;
28762;SDS011;15918;51.270;6.522;2023-07-29T09:49:51;2.47;;;1.75;;
28762;SDS011;15918;51.270;6.522;2023-07-29T09:52:17;1.52;;;1.42;;
28762;SDS011;15918;51.270;6.522;2023-07-29T09:54:44;2.55;;;1.73;;
28762;SDS011;15918;51.270;6.522;2023-07-29T09:57:11;1.83;;;1.73;;
28762;SDS011;15918;51.270;6.522;2023-07-29T09:59:41;3.20;;;1.92;;
28762;SDS011;15918;51.270;6.522;2023-07-29T10:02:13;2.63;;;1.98;;
28762;SDS011;15918;51.270;6.522;2023-07-29T10:04:41;2.03;;;1.77;;
28762;SDS011;15918;51.270;6.522;2023-07-29T10:07:08;1.90;;;1.67;;
28762;SDS011;15918;51.270;6.522;2023-07-29T10:09:35;4.78;;;1.83;;
28762;SDS011;15918;51.270;6.522;2023-07-29T10:12:02;1.92;;;1.80;;
28762;SDS011;15918;51.270;6.522;2023-07-29T10:14:31;2.42;;;1.90;;
28762;SDS011;15918;51.270;6.522;2023-07-29T10:16:57;3.63;;;1.80;;
28762;SDS011;15918;51.270;6.522;2023-07-29T10:19:24;3.33;;;2.00;;
28762;SDS011;15918;51.270;6.522;2023-07-29T10:21:53;1.90;;;1.75;;
28762;SDS011;15918;51.270;6.522;2023-07-29T10:24:24;2.10;;;1.90;;
28762;SDS011;15918;51.270;6.522;2023-07-29T10:26:55;2.22;;;2.05;;
28762;SDS011;15918;51.270;6.522;2023-07-29T10:29:23;1.88;;;1.73;;
28762;SDS011;15918;51.270;6.522;2023-07-29T10:31:53;1.80;;;1.70;;
28762;SDS011;15918;51.270;6.522;2023-07-29T10:34:22;1.88;;;1.67;;
28762;SDS011;15918;51.270;6.522;2023-07-29T10:36:49;2.25;;;1.77;;
28762;SDS011;15918;51.270;6.522;2023-07-29T10:39:15;2.08;;;1.90;;
28762;SDS011;15918;51.270;6.522;2023-07-29T10:42:14;4.95;;;1.90;;
28762;SDS011;15918;51.270;6.522;2023-07-29T10:49:54;2.30;;;1.83;;
28762;SDS011;15918;51.270;6.522;2023-07-29T10:52:27;2.33;;;2.13;;
28762;SDS011;15918;51.270;6.522;2023-07-29T10:54:55;1.75;;;1.65;;
28762;SDS011;15918;51.270;6.522;2023-07-29T11:00:00;2.65;;;1.80;;
28762;SDS011;15918;51.270;6.522;2023-07-29T11:02:30;2.50;;;1.67;;
28762;SDS011;15918;51.270;6.522;2023-07-29T11:04:56;2.13;;;1.70;;
28762;SDS011;15918;51.270;6.522;2023-07-29T11:07:23;1.70;;;1.55;;
28762;SDS011;15918;51.270;6.522;2023-07-29T11:10:01;1.90;;;1.80;;
28762;SDS011;15918;51.270;6.522;2023-07-29T11:20:08;2.78;;;1.73;;
28762;SDS011;15918;51.270;6.522;2023-07-29T11:22:35;2.65;;;2.00;;
28762;SDS011;15918;51.270;6.522;2023-07-29T11:25:01;1.65;;;1.55;;
28762;SDS011;15918;51.270;6.522;2023-07-29T11:27:27;1.55;;;1.45;;
28762;SDS011;15918;51.270;6.522;2023-07-29T11:29:59;4.20;;;2.10;;
28762;SDS011;15918;51.270;6.522;2023-07-29T11:32:30;2.20;;;2.00;;
28762;SDS011;15918;51.270;6.522;2023-07-29T11:34:56;2.75;;;1.80;;
28762;SDS011;15918;51.270;6.522;2023-07-29T11:37:26;2.50;;;1.60;;
28762;SDS011;15918;51.270;6.522;2023-07-29T11:39:51;3.17;;;2.00;;
28762;SDS011;15918;51.270;6.522;2023-07-29T11:42:17;2.85;;;2.28;;
28762;SDS011;15918;51.270;6.522;2023-07-29T11:44:42;1.80;;;1.70;;
28762;SDS011;15918;51.270;6.522;2023-07-29T11:47:11;2.40;;;1.95;;
28762;SDS011;15918;51.270;6.522;2023-07-29T11:49:38;2.75;;;2.40;;
28762;SDS011;15918;51.270;6.522;2023-07-29T11:52:08;3.28;;;1.88;;
28762;SDS011;15918;51.270;6.522;2023-07-29T11:54:38;3.05;;;2.10;;
28762;SDS011;15918;51.270;6.522;2023-07-29T11:57:08;2.33;;;2.13;;
28762;SDS011;15918;51.270;6.522;2023-07-29T11:59:34;2.15;;;1.95;;
28762;SDS011;15918;51.270;6.522;2023-07-29T12:02:01;1.88;;;1.75;;
28762;SDS011;15918;51.270;6.522;2023-07-29T12:04:30;2.10;;;2.00;;
28762;SDS011;15918;51.270;6.522;2023-07-29T12:06:56;2.80;;;1.92;;
28762;SDS011;15918;51.270;6.522;2023-07-29T12:09:22;2.70;;;2.25;;
28762;SDS011;15918;51.270;6.522;2023-07-29T12:11:48;1.98;;;1.88;;
28762;SDS011;15918;51.270;6.522;2023-07-29T12:14:16;2.28;;;1.95;;
28762;SDS011;15918;51.270;6.522;2023-07-29T12:16:42;2.55;;;2.35;;
28762;SDS011;15918;51.270;6.522;2023-07-29T12:19:08;2.20;;;2.08;;
28762;SDS011;15918;51.270;6.522;2023-07-29T12:21:37;3.75;;;2.45;;
28762;SDS011;15918;51.270;6.522;2023-07-29T12:24:02;2.95;;;2.03;;
28762;SDS011;15918;51.270;6.522;2023-07-29T12:26:31;2.92;;;2.15;;
28762;SDS011;15918;51.270;6.522;2023-07-29T12:28:57;3.60;;;2.22;;
28762;SDS011;15918;51.270;6.522;2023-07-29T12:31:30;4.18;;;2.40;;
28762;SDS011;15918;51.270;6.522;2023-07-29T12:33:57;4.38;;;2.20;;
28762;SDS011;15918;51.270;6.522;2023-07-29T12:36:26;4.10;;;2.50;;
28762;SDS011;15918;51.270;6.522;2023-07-29T12:39:04;3.47;;;2.90;;
28762;SDS011;15918;51.270;6.522;2023-07-29T12:41:30;5.97;;;2.80;;
28762;SDS011;15918;51.270;6.522;2023-07-29T12:43:56;5.22;;;2.83;;
28762;SDS011;15918;51.270;6.522;2023-07-29T12:46:21;3.72;;;2.53;;
28762;SDS011;15918;51.270;6.522;2023-07-29T12:48:47;2.90;;;2.35;;
28762;SDS011;15918;51.270;6.522;2023-07-29T12:51:12;3.10;;;2.42;;
28762;SDS011;15918;51.270;6.522;2023-07-29T12:53:38;3.90;;;2.28;;
28762;SDS011;15918;51.270;6.522;2023-07-29T12:56:05;2.90;;;2.30;;
28762;SDS011;15918;51.270;6.522;2023-07-29T12:58:31;4.18;;;2.30;;
28762;SDS011;15918;51.270;6.522;2023-07-29T13:00:56;4.07;;;2.42;;
28762;SDS011;15918;51.270;6.522;2023-07-29T13:03:22;2.92;;;2.35;;
28762;SDS011;15918;51.270;6.522;2023-07-29T13:05:47;2.63;;;2.10;;
28762;SDS011;15918;51.270;6.522;2023-07-29T13:08:13;3.25;;;2.40;;
28762;SDS011;15918;51.270;6.522;2023-07-29T13:10:39;2.40;;;2.20;;
28762;SDS011;15918;51.270;6.522;2023-07-29T13:13:04;2.83;;;2.13;;
28762;SDS011;15918;51.270;6.522;2023-07-29T13:15:30;3.53;;;2.25;;
28762;SDS011;15918;51.270;6.522;2023-07-29T13:17:55;4.82;;;2.40;;
28762;SDS011;15918;51.270;6.522;2023-07-29T13:20:21;3.42;;;2.50;;
28762;SDS011;15918;51.270;6.522;2023-07-29T13:22:46;3.58;;;2.25;;
28762;SDS011;15918;51.270;6.522;2023-07-29T13:25:12;2.50;;;2.30;;
28762;SDS011;15918;51.270;6.522;2023-07-29T13:27:38;3.92;;;2.60;;
28762;SDS011;15918;51.270;6.522;2023-07-29T13:30:04;3.08;;;2.70;;
28762;SDS011;15918;51.270;6.522;2023-07-29T13:32:30;2.97;;;2.67;;
28762;SDS011;15918;51.270;6.522;2023-07-29T13:34:55;3.83;;;2.95;;
28762;SDS011;15918;51.270;6.522;2023-07-29T13:37:21;3.55;;;3.08;;
28762;SDS011;15918;51.270;6.522;2023-07-29T13:39:46;4.25;;;2.55;;
28762;SDS011;15918;51.270;6.522;2023-07-29T13:42:12;5.22;;;2.50;;
28762;SDS011;15918;51.270;6.522;2023-07-29T13:44:37;3.60;;;2.65;;
28762;SDS011;15918;51.270;6.522;2023-07-29T13:47:03;3.47;;;2.80;;
28762;SDS011;15918;51.270;6.522;2023-07-29T13:49:29;3.15;;;2.47;;
28762;SDS011;15918;51.270;6.522;2023-07-29T13:51:54;2.72;;;2.53;;
28762;SDS011;15918;51.270;6.522;2023-07-29T13:54:20;4.43;;;3.00;;
28762;SDS011;15918;51.270;6.522;2023-07-29T13:56:46;4.00;;;3.05;;
28762;SDS011;15918;51.270;6.522;2023-07-29T13:59:12;3.28;;;2.38;;
28762;SDS011;15918;51.270;6.522;2023-07-29T14:01:37;3.33;;;2.80;;
28762;SDS011;15918;51.270;6.522;2023-07-29T14:04:03;2.60;;;2.20;;
28762;SDS011;15918;51.270;6.522;2023-07-29T14:06:29;2.80;;;2.40;;
28762;SDS011;15918;51.270;6.522;2023-07-29T14:08:54;3.90;;;2.85;;
28762;SDS011;15918;51.270;6.522;2023-07-29T14:11:20;4.22;;;2.50;;
28762;SDS011;15918;51.270;6.522;2023-07-29T14:13:45;2.50;;;2.30;;
28762;SDS011;15918;51.270;6.522;2023-07-29T14:16:11;2.33;;;2.13;;
28762;SDS011;15918;51.270;6.522;2023-07-29T14:18:37;4.72;;;2.45;;
28762;SDS011;15918;51.270;6.522;2023-07-29T14:21:02;2.95;;;2.63;;
28762;SDS011;15918;51.270;6.522;2023-07-29T14:23:28;3.60;;;2.38;;
28762;SDS011;15918;51.270;6.522;2023-07-29T14:25:55;3.97;;;2.28;;
28762;SDS011;15918;51.270;6.522;2023-07-29T14:28:20;2.40;;;2.20;;
28762;SDS011;15918;51.270;6.522;2023-07-29T14:30:46;2.60;;;2.40;;
28762;SDS011;15918;51.270;6.522;2023-07-29T14:33:12;2.83;;;2.22;;
28762;SDS011;15918;51.270;6.522;2023-07-29T14:35:38;2.63;;;2.42;;
28762;SDS011;15918;51.270;6.522;2023-07-29T14:38:04;5.40;;;2.38;;
28762;SDS011;15918;51.270;6.522;2023-07-29T14:40:29;2.50;;;2.30;;
28762;SDS011;15918;51.270;6.522;2023-07-29T14:42:55;2.47;;;2.28;;
28762;SDS011;15918;51.270;6.522;2023-07-29T14:45:20;2.95;;;2.70;;
28762;SDS011;15918;51.270;6.522;2023-07-29T14:47:46;2.65;;;2.38;;
28762;SDS011;15918;51.270;6.522;2023-07-29T14:50:11;4.10;;;2.53;;
28762;SDS011;15918;51.270;6.522;2023-07-29T14:52:37;4.20;;;2.88;;
28762;SDS011;15918;51.270;6.522;2023-07-29T14:55:03;5.65;;;2.20;;
28762;SDS011;15918;51.270;6.522;2023-07-29T14:57:29;2.35;;;2.15;;
28762;SDS011;15918;51.270;6.522;2023-07-29T14:59:54;2.38;;;2.17;;
28762;SDS011;15918;51.270;6.522;2023-07-29T15:02:20;2.65;;;2.35;;
28762;SDS011;15918;51.270;6.522;2023-07-29T15:04:47;2.20;;;2.00;;
28762;SDS011;15918;51.270;6.522;2023-07-29T15:07:13;3.47;;;2.20;;